createdAt,value
2019-01-09T00:02:29.051Z,99.23
2019-01-09T00:05:36.891Z,98.64
2019-01-09T00:08:44.091Z,99.54
2019-01-09T00:11:51.388Z,97.58
2019-01-09T00:14:59.894Z,97.35
2019-01-09T00:18:16.992Z,95.66
2019-01-09T00:21:24.986Z,92.89
2019-01-09T00:24:32.475Z,91.36
2019-01-09T00:27:39.686Z,92.55
2019-01-09T00:30:47.379Z,91.21
2019-01-09T00:34:04.219Z,92.98
2019-01-09T00:37:20.899Z,89.14
2019-01-09T00:40:28.089Z,89.47
2019-01-09T00:43:35.273Z,88.04
2019-01-09T00:46:42.474Z,88.12
2019-01-09T00:49:49.679Z,88.06
2019-01-09T00:52:56.968Z,88.47
2019-01-09T00:56:04.158Z,88.09
2019-01-09T00:59:11.354Z,87.67
2019-01-09T01:02:55.456Z,87.92
2019-01-09T01:07:00.645Z,89.52
2019-01-09T01:10:53.557Z,89.42
2019-01-09T01:15:04.548Z,90.09
2019-01-09T01:18:53.874Z,89.35
2019-01-09T01:22:53.900Z,89.51
2019-01-09T01:26:21.890Z,89.77
2019-01-09T01:29:49.655Z,89.25
2019-01-09T01:33:35.457Z,91.11
2019-01-09T01:37:19.588Z,90.19
2019-01-09T01:40:38.981Z,90.76
2019-01-09T01:44:36.251Z,92.12
2019-01-09T01:48:21.397Z,92.12
2019-01-09T01:52:11.274Z,91.41
2019-01-09T01:56:26.397Z,92.91
2019-01-09T01:59:39.774Z,93.26
2019-01-09T02:03:19.270Z,94.73
2019-01-09T02:07:11.103Z,94.48
2019-01-09T02:10:58.575Z,95.69
2019-01-09T02:14:42.293Z,93.97
2019-01-09T02:17:56.114Z,94.56
2019-01-09T02:21:32.720Z,93.97
2019-01-09T02:25:10.826Z,92.52
2019-01-09T02:28:34.304Z,92.07
2019-01-09T02:32:07.322Z,91.36
2019-01-09T02:35:14.716Z,91.34
2019-01-09T02:38:22.024Z,91.33
2019-01-09T02:41:29.332Z,90.91
2019-01-09T02:44:36.450Z,91.52
2019-01-09T02:47:43.724Z,92.22
2019-01-09T02:50:50.930Z,91.50
2019-01-09T02:53:58.318Z,90.07
2019-01-09T02:57:05.864Z,89.55
2019-01-09T03:00:22.239Z,89.56
2019-01-09T03:03:29.426Z,90.64
2019-01-09T03:06:46.120Z,89.61
2019-01-09T03:09:53.322Z,90.69
2019-01-09T03:13:00.517Z,88.97
2019-01-09T03:16:07.819Z,89.31
2019-01-09T03:19:15.006Z,90.10
2019-01-09T03:22:34.224Z,92.37
2019-01-09T03:25:41.474Z,93.51
2019-01-09T03:28:48.873Z,94.51
2019-01-09T03:32:05.372Z,94.47
2019-01-09T03:35:12.558Z,95.68
2019-01-09T03:38:19.754Z,96.78
2019-01-09T03:41:27.131Z,96.54
2019-01-09T03:44:43.714Z,94.15
2019-01-09T03:47:50.835Z,93.53
2019-01-09T03:50:57.938Z,93.84
2019-01-09T03:54:05.231Z,94.23
2019-01-09T03:57:12.441Z,94.47
2019-01-09T04:00:18.901Z,95.08
2019-01-09T04:03:26.362Z,94.66
2019-01-09T04:06:41.629Z,94.03
2019-01-09T04:09:42.657Z,95.26
2019-01-09T04:12:49.853Z,95.15
2019-01-09T04:15:56.993Z,95.00
2019-01-09T04:19:04.304Z,94.57
2019-01-09T04:22:11.798Z,95.32
2019-01-09T04:25:19.750Z,95.49
2019-01-09T04:28:26.947Z,94.82
2019-01-09T04:31:34.135Z,95.40
2019-01-09T04:34:41.258Z,96.76
2019-01-09T04:37:48.401Z,96.14
2019-01-09T04:40:55.517Z,95.07
2019-01-09T04:44:03.142Z,94.86
2019-01-09T04:47:10.590Z,95.10
2019-01-09T04:50:17.721Z,94.38
2019-01-09T04:53:25.092Z,93.65
2019-01-09T04:56:32.426Z,93.52
2019-01-09T04:59:39.606Z,94.06
2019-01-09T05:02:46.248Z,92.53
2019-01-09T05:05:53.455Z,92.62
2019-01-09T05:09:00.689Z,91.39
2019-01-09T05:12:07.817Z,92.15
2019-01-09T05:15:15.034Z,90.63
2019-01-09T05:18:22.332Z,89.64
2019-01-09T05:21:28.414Z,91.81
2019-01-09T05:24:35.714Z,90.23
2019-01-09T05:27:42.993Z,88.69
2019-01-09T05:30:50.123Z,88.97
2019-01-09T05:34:06.852Z,87.60
2019-01-09T05:37:13.978Z,90.09
2019-01-09T05:40:21.098Z,87.50
2019-01-09T05:43:28.202Z,88.06
2019-01-09T05:46:35.355Z,89.02
2019-01-09T05:49:42.589Z,86.28
2019-01-09T05:52:49.813Z,87.74
2019-01-09T05:55:57.041Z,88.13
2019-01-09T05:59:04.150Z,88.86
2019-01-09T06:02:11.281Z,90.32
2019-01-09T06:05:18.397Z,89.81
2019-01-09T06:08:25.599Z,90.81
2019-01-09T06:11:32.753Z,90.88
2019-01-09T06:14:39.999Z,90.48
2019-01-09T06:17:47.491Z,90.78
2019-01-09T06:20:54.622Z,90.02
2019-01-09T06:24:01.752Z,91.13
2019-01-09T06:27:08.961Z,91.65
2019-01-09T06:30:16.259Z,89.83
2019-01-09T06:33:23.382Z,91.36
2019-01-09T06:36:30.885Z,89.17
2019-01-09T06:39:38.186Z,88.57
2019-01-09T06:42:54.853Z,87.33
2019-01-09T06:46:01.975Z,88.25
2019-01-09T06:49:09.162Z,89.01
2019-01-09T06:52:16.282Z,88.66
2019-01-09T06:55:23.517Z,88.42
2019-01-09T06:58:30.668Z,87.83
2019-01-09T07:01:37.799Z,86.02
2019-01-09T07:04:45.016Z,86.00
2019-01-09T07:07:52.138Z,85.67
2019-01-09T07:10:59.264Z,86.88
2019-01-09T07:14:06.891Z,90.41
2019-01-09T07:17:14.079Z,91.92
2019-01-09T07:20:21.300Z,93.51
2019-01-09T07:23:28.425Z,93.99
2019-01-09T07:26:45.083Z,92.04
2019-01-09T07:29:52.277Z,90.09
2019-01-09T07:32:59.505Z,90.28
2019-01-09T07:36:06.727Z,90.64
2019-01-09T07:39:13.847Z,90.26
2019-01-09T07:42:21.181Z,88.00
2019-01-09T07:45:37.832Z,89.04
2019-01-09T07:48:45.051Z,87.75
2019-01-09T07:51:52.173Z,87.11
2019-01-09T07:54:59.462Z,88.20
2019-01-09T07:58:06.762Z,86.77
2019-01-09T08:01:23.374Z,86.48
2019-01-09T08:04:32.412Z,88.35
2019-01-09T08:07:39.445Z,87.45
2019-01-09T08:10:56.161Z,88.05
2019-01-09T08:14:03.446Z,89.99
2019-01-09T08:17:20.077Z,91.10
2019-01-09T08:20:27.259Z,90.80
2019-01-09T08:23:34.457Z,92.54
2019-01-09T08:26:41.673Z,92.03
2019-01-09T08:29:48.843Z,93.53
2019-01-09T08:32:55.959Z,94.18
2019-01-09T08:36:03.049Z,94.51
2019-01-09T08:39:10.250Z,95.90
2019-01-09T08:42:17.541Z,94.25
2019-01-09T08:45:24.729Z,94.25
2019-01-09T08:48:31.866Z,94.24
2019-01-09T08:51:39.075Z,96.49
2019-01-09T08:54:46.359Z,99.02
2019-01-09T08:57:53.752Z,100.00
2019-01-09T09:01:10.430Z,100.00
2019-01-09T09:04:17.563Z,100.00
2019-01-09T09:07:25.731Z,100.00
2019-01-09T09:10:33.067Z,100.00
2019-01-09T09:13:40.807Z,100.00
2019-01-09T09:16:47.937Z,100.00
2019-01-09T09:19:55.092Z,100.00
2019-01-09T09:23:02.226Z,100.00
2019-01-09T09:26:09.619Z,100.00
2019-01-09T09:29:16.855Z,99.95
2019-01-09T09:32:24.085Z,100.00
2019-01-09T09:35:31.287Z,100.00
2019-01-09T09:38:38.491Z,99.47
2019-01-09T09:41:45.607Z,99.96
2019-01-09T09:45:02.475Z,99.21
2019-01-09T09:48:09.762Z,99.03
2019-01-09T09:51:26.368Z,98.85
2019-01-09T09:54:33.654Z,98.39
2019-01-09T09:57:40.785Z,98.24
2019-01-09T10:00:47.553Z,97.94
2019-01-09T10:03:55.838Z,99.07
2019-01-09T10:07:03.047Z,99.75
2019-01-09T10:10:11.322Z,98.70
2019-01-09T10:13:18.441Z,98.90
2019-01-09T10:16:25.635Z,98.86
2019-01-09T10:19:32.830Z,99.12
2019-01-09T10:22:40.075Z,99.26
2019-01-09T10:25:47.466Z,97.47
2019-01-09T10:29:03.985Z,97.16
2019-01-09T10:32:11.173Z,97.38
2019-01-09T10:35:18.402Z,95.00
2019-01-09T10:38:38.185Z,96.21
2019-01-09T10:41:43.931Z,94.86
2019-01-09T10:45:00.667Z,94.71
2019-01-09T10:48:17.494Z,94.42
2019-01-09T10:51:24.637Z,93.56
2019-01-09T10:54:31.759Z,91.78
2019-01-09T10:57:39.045Z,92.39
2019-01-09T11:00:46.242Z,93.73
2019-01-09T11:03:51.859Z,94.26
2019-01-09T11:06:58.981Z,92.78
2019-01-09T11:10:06.051Z,93.07
2019-01-09T11:13:14.109Z,94.09
2019-01-09T11:16:21.336Z,94.05
2019-01-09T11:19:27.794Z,94.28
2019-01-09T11:22:34.911Z,94.42
2019-01-09T11:25:42.203Z,94.32
2019-01-09T11:28:49.594Z,94.02
2019-01-09T11:32:06.255Z,93.93
2019-01-09T11:35:14.307Z,94.03
2019-01-09T11:38:21.486Z,93.09
2019-01-09T11:41:28.687Z,93.14
2019-01-09T11:44:46.199Z,93.09
2019-01-09T11:47:53.630Z,91.71
2019-01-09T11:51:10.148Z,91.63
2019-01-09T11:54:17.338Z,92.26
2019-01-09T11:57:24.457Z,93.83
2019-01-09T12:00:31.641Z,93.30
2019-01-09T12:03:38.775Z,93.41
2019-01-09T12:06:45.916Z,93.22
2019-01-09T12:09:53.043Z,93.41
2019-01-09T12:13:00.277Z,93.88
2019-01-09T12:16:08.232Z,94.39
2019-01-09T12:19:15.647Z,94.30
2019-01-09T12:22:22.847Z,93.95
2019-01-09T12:25:30.069Z,94.15
2019-01-09T12:28:37.335Z,94.83
2019-01-09T12:31:44.573Z,95.48
2019-01-09T12:34:51.665Z,95.82
2019-01-09T12:37:58.866Z,96.04
2019-01-09T12:41:05.982Z,96.13
2019-01-09T12:44:13.277Z,95.39
2019-01-09T12:47:20.488Z,94.55
2019-01-09T12:50:27.692Z,94.92
2019-01-09T12:53:34.806Z,95.56
2019-01-09T12:56:41.939Z,96.01
2019-01-09T12:59:48.023Z,94.67
2019-01-09T13:02:55.221Z,94.33
2019-01-09T13:06:02.342Z,93.64
2019-01-09T13:09:10.358Z,93.24
2019-01-09T13:12:26.815Z,94.27
2019-01-09T13:15:34.005Z,92.89
2019-01-09T13:18:41.130Z,91.26
2019-01-09T13:21:48.248Z,90.38
2019-01-09T13:24:55.464Z,92.51
2019-01-09T13:28:02.590Z,91.18
2019-01-09T13:31:09.706Z,90.84
2019-01-09T13:34:16.837Z,91.98
2019-01-09T13:37:23.955Z,91.16
2019-01-09T13:40:31.272Z,90.75
2019-01-09T13:43:38.609Z,89.67
2019-01-09T13:46:45.798Z,87.28
2019-01-09T13:49:52.927Z,87.20
2019-01-09T13:53:00.053Z,87.68
2019-01-09T13:56:07.168Z,87.87
2019-01-09T13:59:15.424Z,87.46
2019-01-09T14:02:22.615Z,89.44
2019-01-09T14:05:29.773Z,88.04
2019-01-09T14:08:37.055Z,87.90
2019-01-09T14:11:44.546Z,87.71
2019-01-09T14:14:51.667Z,87.19
2019-01-09T14:17:58.964Z,87.19
2019-01-09T14:21:06.280Z,86.54
2019-01-09T14:24:13.600Z,87.77
2019-01-09T14:27:20.801Z,87.82
2019-01-09T14:30:29.019Z,87.67
2019-01-09T14:33:36.149Z,88.48
2019-01-09T14:36:43.425Z,88.46
2019-01-09T14:39:50.649Z,89.48
2019-01-09T14:42:57.958Z,90.12
2019-01-09T14:46:05.164Z,89.40
2019-01-09T14:49:12.423Z,89.56
2019-01-09T14:52:19.627Z,89.82
2019-01-09T14:55:26.817Z,88.85
2019-01-09T14:58:34.011Z,88.20
2019-01-09T15:01:41.206Z,88.89
2019-01-09T15:04:48.435Z,89.11
2019-01-09T15:07:55.633Z,89.20
2019-01-09T15:11:02.824Z,88.53
2019-01-09T15:14:10.126Z,87.84
2019-01-09T15:17:17.504Z,88.64
2019-01-09T15:20:24.638Z,87.68
2019-01-09T15:23:31.766Z,88.12
2019-01-09T15:26:38.919Z,88.37
2019-01-09T15:29:46.103Z,86.37
2019-01-09T15:32:53.366Z,87.72
2019-01-09T15:36:00.720Z,87.90
2019-01-09T15:39:09.172Z,86.69
2019-01-09T15:42:16.377Z,86.22
2019-01-09T15:45:33.972Z,85.47
2019-01-09T15:48:41.185Z,86.34
2019-01-09T15:51:57.898Z,85.80
2019-01-09T15:55:15.339Z,86.49
2019-01-09T15:58:22.637Z,85.78
2019-01-09T16:01:28.825Z,86.60
2019-01-09T16:04:36.125Z,86.14
2019-01-09T16:07:43.502Z,85.83
2019-01-09T16:10:50.620Z,86.73
2019-01-09T16:13:57.752Z,86.38
2019-01-09T16:17:05.044Z,87.09
2019-01-09T16:20:17.027Z,87.38
2019-01-09T16:23:22.080Z,87.36
2019-01-09T16:26:29.467Z,88.39
2019-01-09T16:29:36.591Z,88.90
2019-01-09T16:32:43.715Z,86.81
2019-01-09T16:35:50.878Z,86.49
2019-01-09T16:38:57.993Z,86.09
2019-01-09T16:42:05.355Z,85.99
2019-01-09T16:45:12.671Z,86.65
2019-01-09T16:48:19.810Z,87.09
2019-01-09T16:51:27.014Z,86.85
2019-01-09T16:54:34.244Z,86.02
2019-01-09T16:57:41.553Z,86.45
2019-01-09T17:00:48.947Z,87.14
2019-01-09T17:03:56.072Z,86.34
2019-01-09T17:07:02.966Z,87.47
2019-01-09T17:10:10.989Z,86.81
2019-01-09T17:13:27.712Z,86.29
2019-01-09T17:16:44.305Z,86.36
2019-01-09T17:19:51.446Z,85.98
2019-01-09T17:23:08.138Z,86.15
2019-01-09T17:26:15.265Z,85.84
2019-01-09T17:29:22.847Z,86.34
2019-01-09T17:32:39.254Z,86.74
2019-01-09T17:35:46.675Z,86.80
2019-01-09T17:39:03.608Z,86.87
2019-01-09T17:42:20.661Z,86.50
2019-01-09T17:45:27.950Z,88.04
2019-01-09T17:48:35.073Z,87.58
2019-01-09T17:51:52.227Z,87.46
2019-01-09T17:54:59.347Z,88.02
2019-01-09T17:58:06.530Z,86.46
2019-01-09T18:01:13.657Z,86.53
2019-01-09T18:04:21.113Z,86.86
2019-01-09T18:07:37.742Z,86.33
2019-01-09T18:10:50.050Z,87.85
2019-01-09T18:14:06.283Z,86.72
2019-01-09T18:17:23.048Z,86.61
2019-01-09T18:20:39.761Z,87.33
2019-01-09T18:23:56.448Z,86.34
2019-01-09T18:27:03.651Z,86.71
2019-01-09T18:30:14.302Z,87.61
2019-01-09T18:33:39.461Z,86.82
2019-01-09T18:37:03.347Z,86.35
2019-01-09T18:40:59.204Z,85.57
2019-01-09T18:44:33.001Z,86.32
2019-01-09T18:48:33.821Z,87.05
2019-01-09T18:52:28.609Z,86.03
2019-01-09T18:55:45.191Z,85.73
2019-01-09T18:58:52.680Z,85.79
2019-01-09T19:02:09.244Z,87.04
2019-01-09T19:05:25.876Z,85.51
2019-01-09T19:08:33.105Z,85.65
2019-01-09T19:11:40.302Z,85.85
2019-01-09T19:14:47.686Z,85.33
2019-01-09T19:18:04.292Z,86.04
2019-01-09T19:21:20.970Z,89.14
2019-01-09T19:24:37.703Z,86.92
2019-01-09T19:27:54.463Z,86.65
2019-01-09T19:31:11.193Z,85.72
2019-01-09T19:34:28.873Z,86.30
2019-01-09T19:37:36.070Z,85.89
2019-01-09T19:40:59.810Z,86.80
2019-01-09T19:44:07.186Z,86.07
2019-01-09T19:47:14.325Z,86.11
2019-01-09T19:50:23.063Z,86.03
2019-01-09T19:53:30.266Z,86.70
2019-01-09T19:56:37.468Z,86.28
2019-01-09T19:59:44.658Z,86.08
2019-01-09T20:02:51.904Z,86.33
2019-01-09T20:05:59.167Z,86.24
2019-01-09T20:09:08.696Z,85.94
2019-01-09T20:12:25.644Z,86.07
2019-01-09T20:15:32.984Z,88.55
2019-01-09T20:18:40.236Z,86.26
2019-01-09T20:21:47.464Z,86.04
2019-01-09T20:24:54.629Z,86.29
2019-01-09T20:28:01.769Z,85.77
2019-01-09T20:31:08.915Z,86.08
2019-01-09T20:34:16.294Z,86.59
2019-01-09T20:37:23.406Z,86.56
2019-01-09T20:40:30.599Z,89.29
2019-01-09T20:43:37.922Z,87.61
2019-01-09T20:46:45.035Z,86.63
2019-01-09T20:49:52.332Z,86.72
2019-01-09T20:52:59.808Z,86.96
2019-01-09T20:56:07.190Z,87.24
2019-01-09T20:59:14.448Z,87.14
2019-01-09T21:02:21.615Z,89.11
2019-01-09T21:05:32.096Z,87.74
2019-01-09T21:08:39.256Z,87.64
2019-01-09T21:11:46.569Z,87.58
2019-01-09T21:14:53.676Z,87.31
2019-01-09T21:18:00.970Z,87.06
2019-01-09T21:21:08.248Z,86.57
2019-01-09T21:24:15.453Z,86.59
2019-01-09T21:27:22.795Z,87.05
2019-01-09T21:30:29.967Z,86.68
2019-01-09T21:33:46.697Z,87.26
2019-01-09T21:36:53.998Z,87.11
2019-01-09T21:40:14.121Z,86.60
2019-01-09T21:43:30.612Z,86.94
2019-01-09T21:46:45.883Z,86.78
2019-01-09T21:49:46.546Z,88.18
2019-01-09T21:52:53.823Z,85.99
2019-01-09T21:56:01.031Z,85.93
2019-01-09T21:59:17.672Z,86.16
2019-01-09T22:02:24.857Z,86.40
2019-01-09T22:05:32.045Z,85.67
2019-01-09T22:08:48.909Z,86.50
2019-01-09T22:12:02.394Z,87.89
2019-01-09T22:15:07.811Z,87.08
2019-01-09T22:18:15.002Z,86.53
2019-01-09T22:21:22.278Z,86.30
2019-01-09T22:24:29.468Z,86.43
2019-01-09T22:27:36.659Z,88.09
2019-01-09T22:30:43.849Z,85.03
2019-01-09T22:33:51.046Z,85.05
2019-01-09T22:36:58.260Z,84.92
2019-01-09T22:40:06.900Z,85.31
2019-01-09T22:43:14.330Z,86.03
2019-01-09T22:46:21.523Z,86.20
2019-01-09T22:49:28.642Z,85.37
2019-01-09T22:52:35.837Z,84.23
2019-01-09T22:55:43.027Z,84.56
2019-01-09T22:58:50.179Z,84.26
2019-01-09T23:01:57.533Z,84.74
2019-01-09T23:05:04.098Z,85.96
2019-01-09T23:08:11.479Z,85.08
2019-01-09T23:11:18.597Z,85.61
2019-01-09T23:14:25.899Z,85.37
2019-01-09T23:17:33.192Z,84.95
2019-01-09T23:20:40.393Z,84.88
2019-01-09T23:23:47.076Z,84.89
2019-01-09T23:26:54.326Z,83.69
2019-01-09T23:30:01.523Z,83.24
2019-01-09T23:33:08.812Z,84.32
2019-01-09T23:36:16.191Z,83.84
2019-01-09T23:39:23.387Z,84.29
2019-01-09T23:42:30.860Z,84.69
2019-01-09T23:45:37.973Z,86.84
2019-01-09T23:48:45.262Z,84.07
2019-01-09T23:51:52.450Z,87.19
2019-01-09T23:54:59.566Z,84.88
2019-01-09T23:58:06.795Z,84.96
